6°C
Woerden, The Nederlands
Taal:  Nederlands
Updated14/11/2018 06:25 
 

Nearby METAR Reports

EHAM - Amsterdam/Schiph, Netherlands
Distance from station: N 27km
Updated: 14/11/2018 06:25
Helder
Helder
 Wind van Z
Wind: Z 15 km/h
Temperatuur: 7°C
Hitte Index: 4°C
Dauwpunt: 6°C
Vochtigheid: 93%
Barometer: 1026 hPa
Overzicht: Helder
Visibility: greater than 10 km
2018/11/14 05:25 EHAM 140525Z 19008KT CAVOK 07/06 Q1026 NOSIG
EHRD - Rotterdam Airpor, Netherlands
Distance from station: WZW 30km
Updated: 14/11/2018 06:25
Gedeeltelijk bewolkt
Gedeeltelijk bewolkt
 Wind van Z
Wind: Z 11 km/h
Temperatuur: 7°C
Hitte Index: 5°C
Dauwpunt: 6°C
Vochtigheid: 93%
Barometer: 1026 hPa
Clouds: Gedeeltelijk bewolkt
Visibility: 10 km
2018/11/14 05:25 EHRD 140525Z AUTO 18006KT 9999 NSC 07/06 Q1026 NOSIG
 
EHGR - Gilze-Rijen Rnla, Netherlands
Distance from station: Z 57km
Updated: 14/11/2018 06:25
Helder
Helder
 Wind van Z
Wind: Z 13 km/h
Temperatuur: 6°C
Hitte Index: 3°C
Dauwpunt: 5°C
Vochtigheid: 93%
Barometer: 1027 hPa
Clouds: Helder
Visibility: 10 km
2018/11/14 05:25 EHGR 140525Z AUTO 18007KT 140V210 9999 NCD 06/05 Q1027 BLU
EHDL - Deelen Rnlafb, Netherlands
Distance from station: O 71km
Updated: 14/11/2018 06:25
Zwaar bewolkt
Zwaar bewolkt
 Wind van Z
Wind: Z 11 km/h
Temperatuur: 6°C
Hitte Index: 4°C
Dauwpunt: 6°C
Vochtigheid: 100%
Barometer: 1027 hPa
Clouds: Zwaar bewolkt
Visibility: 10 km
Cloud details: Zwaar bewolkt 10973 m
2018/11/14 05:25 EHDL 140525Z AUTO 18006KT 100V180 9999 OVC360 06/06 Q1027 BLU
 
EHVK - Volkel Rnlafb, Netherlands
Distance from station: ZO 77km
Updated: 14/11/2018 06:25
Zwaar bewolkt
Zwaar bewolkt
 Wind van Z
Wind: Z 11 km/h
Temperatuur: 6°C
Hitte Index: 4°C
Dauwpunt: 5°C
Vochtigheid: 93%
Barometer: 1027 hPa
Clouds: Zwaar bewolkt
Visibility: 10 km
Cloud details: Zwaar bewolkt 10973 m
2018/11/14 05:25 EHVK 140525Z AUTO 19006KT 9999 OVC360 06/05 Q1027 BLU
EHWO - Woensdrecht Rnla, Netherlands
Distance from station: ZZW 78km
Updated: 14/11/2018 06:25
Zwaar bewolkt
Zwaar bewolkt
 Wind van Z
Wind: Z 7 km/h
Temperatuur: 7°C
Hitte Index: 6°C
Dauwpunt: 6°C
Vochtigheid: 93%
Barometer: 1026 hPa
Clouds: Zwaar bewolkt
Visibility: 10 km
Cloud details: Zwaar bewolkt 10363 m
2018/11/14 05:25 EHWO 140525Z AUTO 17004KT 9999 OVC340 07/06 Q1026 BLU
 
EHEH - Eindhoven Rnlafb, Netherlands
Distance from station: ZZO 81km
Updated: 14/11/2018 06:25
Zwaar bewolkt
Zwaar bewolkt
 Wind van Z
Wind: Z 9 km/h
Temperatuur: 5°C
Hitte Index: 3°C
Dauwpunt: 5°C
Vochtigheid: 100%
Barometer: 1027 hPa
Clouds: Zwaar bewolkt
Visibility: 10 km
Cloud details: Zwaar bewolkt 10973 m
2018/11/14 05:25 EHEH 140525Z AUTO 17005KT 150V210 9999 OVC360 05/05 Q1027 BLU
EHSC - Goeree Le Sea, Netherlands
Distance from station: W 81km
Updated: 14/11/2018 06:25

 Wind van ZZW
Wind: ZZW 28 km/h
Temperatuur: 11°C
Dauwpunt: 8°C
Vochtigheid: 82%
Barometer: 1025 hPa
Visibility: 10 km
2018/11/14 05:25 EHSC 140525Z AUTO 21015KT 9999 ///////// 11/08 Q1025 W12/H9